Time;durP1;ratioP1;P1;durP2;ratioP2;P2;SDS_P1;SDS_P2;PMS_P1;PMS_P2;Temp;Humidity;BMP_temperature;BMP_pressure;BME280_temperature;BME280_humidity;BME280_pressure;Samples;Min_cycle;Max_cycle;Signal;HPM_P1;HPM_P2
2023/03/09 00:01:45;;;;;;;2.58;2.37;;;;;;;8.44;100.00;97105.97;4485263;31;20080;-64
2023/03/09 00:04:14;;;;;;;4.93;2.03;;;;;;;8.35;100.00;97105.09;4484920;31;20088;-64
2023/03/09 00:06:42;;;;;;;5.25;2.60;;;;;;;8.34;100.00;97099.09;4485317;32;20405;-64
2023/03/09 00:09:10;;;;;;;4.32;2.55;;;;;;;8.39;100.00;97101.19;4485011;31;20131;-64
2023/03/09 00:11:41;;;;;;;4.57;1.92;;;;;;;8.43;100.00;97093.84;4485095;31;20160;-64
2023/03/09 00:14:08;;;;;;;4.50;2.10;;;;;;;8.56;100.00;97094.19;4484956;31;20575;-64
2023/03/09 00:16:37;;;;;;;4.40;2.22;;;;;;;8.67;100.00;97091.22;4485173;32;20080;-64
2023/03/09 00:19:05;;;;;;;4.47;2.10;;;;;;;8.70;100.00;97088.31;4485090;31;20176;-64
2023/03/09 00:21:40;;;;;;;3.83;2.20;;;;;;;8.65;100.00;97080.13;4485115;31;20106;-64
2023/03/09 00:24:18;;;;;;;4.50;1.83;;;;;;;8.61;100.00;97080.63;4485137;31;20442;-64
2023/03/09 00:26:54;;;;;;;4.65;2.30;;;;;;;8.69;100.00;97081.44;4485078;31;20096;-64
2023/03/09 00:29:22;;;;;;;4.28;1.87;;;;;;;8.87;100.00;97078.62;4485124;31;20189;-64
2023/03/09 00:31:49;;;;;;;3.55;1.85;;;;;;;8.94;100.00;97088.41;4484968;31;20100;-64
2023/03/09 00:34:16;;;;;;;3.70;1.95;;;;;;;9.00;100.00;97077.28;4484924;31;20147;-64
2023/03/09 00:36:43;;;;;;;2.97;1.90;;;;;;;9.05;100.00;97075.78;4485036;31;20152;-64
2023/03/09 00:39:13;;;;;;;7.30;2.20;;;;;;;9.11;100.00;97078.69;4484767;31;20156;-64
2023/03/09 00:41:40;;;;;;;7.60;2.47;;;;;;;9.01;100.00;97073.69;4484892;31;20123;-64
2023/03/09 00:44:08;;;;;;;3.70;1.98;;;;;;;9.03;100.00;97069.91;4484632;31;20168;-64
2023/03/09 00:46:35;;;;;;;2.67;1.70;;;;;;;9.04;100.00;97066.31;4484812;31;20445;-64
2023/03/09 00:49:05;;;;;;;3.17;2.05;;;;;;;9.05;100.00;97064.50;4484795;31;20564;-64
2023/03/09 00:51:36;;;;;;;4.12;2.00;;;;;;;9.03;100.00;97067.28;4484799;31;20084;-64
2023/03/09 00:54:04;;;;;;;7.75;2.15;;;;;;;9.07;100.00;97062.56;4484990;31;20123;-64
2023/03/09 00:56:31;;;;;;;4.62;2.03;;;;;;;9.02;100.00;97060.47;4484812;31;20417;-64
2023/03/09 00:58:59;;;;;;;6.22;1.90;;;;;;;8.96;100.00;97066.37;4484673;31;20425;-64
2023/03/09 01:01:26;;;;;;;5.50;2.10;;;;;;;8.96;100.00;97058.53;4484890;31;20092;-64
2023/03/09 01:03:54;;;;;;;5.85;1.70;;;;;;;8.97;100.00;97054.91;4484622;31;20080;-64
2023/03/09 01:06:23;;;;;;;6.93;2.00;;;;;;;8.93;100.00;97052.81;4484817;31;20088;-64
2023/03/09 01:08:52;;;;;;;4.10;1.62;;;;;;;9.00;100.00;97051.97;4484400;31;20096;-64
2023/03/09 01:11:20;;;;;;;5.62;1.77;;;;;;;8.99;100.00;97045.13;4484580;31;20411;-64
2023/03/09 01:13:50;;;;;;;3.00;1.67;;;;;;;8.96;100.00;97048.09;4484268;31;20148;-64
2023/03/09 01:16:17;;;;;;;3.67;1.98;;;;;;;9.03;100.00;97048.22;4484553;31;20450;-64
2023/03/09 01:18:44;;;;;;;3.60;1.75;;;;;;;8.95;100.00;97050.84;4484432;31;20135;-64
2023/03/09 01:21:11;;;;;;;4.62;1.83;;;;;;;8.97;100.00;97046.28;4484379;31;20560;-64
2023/03/09 01:23:39;;;;;;;5.28;2.25;;;;;;;9.04;100.00;97034.97;4484203;31;20131;-64
2023/03/09 01:26:07;;;;;;;4.43;1.67;;;;;;;8.98;100.00;97035.66;4484298;31;20100;-64
2023/03/09 01:28:35;;;;;;;4.32;1.60;;;;;;;8.93;100.00;97024.88;4484125;31;20390;-64
2023/03/09 01:31:10;;;;;;;3.55;2.10;;;;;;;8.95;100.00;97028.16;4484401;31;20156;-64
2023/03/09 01:33:39;;;;;;;3.45;1.70;;;;;;;8.96;100.00;97024.56;4484245;31;20081;-64
2023/03/09 01:36:08;;;;;;;4.00;1.90;;;;;;;8.98;100.00;97016.56;4484255;31;20165;-64
2023/03/09 01:38:35;;;;;;;4.18;1.62;;;;;;;8.92;100.00;97010.22;4484077;31;20115;-64
2023/03/09 01:41:03;;;;;;;4.72;1.85;;;;;;;8.85;100.00;97009.25;4484046;31;20092;-64
2023/03/09 01:43:36;;;;;;;4.20;1.87;;;;;;;8.75;100.00;97011.25;4484233;32;20599;-64
2023/03/09 01:46:21;;;;;;;3.20;2.07;;;;;;;8.66;100.00;97002.62;4484011;31;20111;-64
2023/03/09 01:48:52;;;;;;;3.83;1.55;;;;;;;8.70;100.00;96999.53;4483958;31;20504;-64
2023/03/09 01:51:20;;;;;;;3.50;1.87;;;;;;;8.69;100.00;96992.69;4482598;32;20090;-64
2023/03/09 01:53:49;;;;;;;5.32;1.83;;;;;;;8.63;100.00;96985.53;4483867;31;20101;-64
2023/03/09 01:56:18;;;;;;;7.00;2.20;;;;;;;8.60;100.00;96983.25;4484276;32;20788;-64
2023/03/09 01:58:48;;;;;;;4.72;1.90;;;;;;;8.59;100.00;96975.59;4483784;31;20611;-64
2023/03/09 02:01:16;;;;;;;2.67;1.65;;;;;;;8.60;100.00;96983.25;4484184;31;20084;-64
2023/03/09 02:03:46;;;;;;;4.05;1.77;;;;;;;8.55;100.00;96975.09;4482282;32;20461;-64
2023/03/09 02:06:16;;;;;;;2.55;1.65;;;;;;;8.47;100.00;96972.53;4482665;32;20100;-64
2023/03/09 02:09:03;;;;;;;5.35;2.00;;;;;;;8.42;100.00;96972.19;4482247;32;20549;-64
2023/03/09 02:11:30;;;;;;;6.90;3.03;;;;;;;8.33;100.00;96964.38;4482379;32;20220;-64
2023/03/09 02:13:59;;;;;;;5.62;2.00;;;;;;;8.28;100.00;96963.25;4486002;31;20088;-64
2023/03/09 02:16:27;;;;;;;3.53;1.70;;;;;;;8.31;100.00;96955.91;4484664;32;20100;-64
2023/03/09 02:18:54;;;;;;;3.65;1.58;;;;;;;8.30;100.00;96954.28;4486222;32;20523;-64
2023/03/09 02:21:44;;;;;;;4.47;2.12;;;;;;;8.24;100.00;96957.56;4484668;32;20153;-64
2023/03/09 02:24:24;;;;;;;5.20;2.33;;;;;;;8.18;100.00;96956.44;4484997;32;20076;-64
2023/03/09 02:26:59;;;;;;;3.25;2.05;;;;;;;8.05;100.00;96953.53;4486056;32;20137;-64
2023/03/09 02:29:27;;;;;;;3.92;2.12;;;;;;;8.04;100.00;96956.28;4485821;32;20506;-64
2023/03/09 02:31:55;;;;;;;4.15;2.05;;;;;;;7.98;100.00;96950.78;4485868;31;20092;-64
2023/03/09 02:34:23;;;;;;;6.05;2.60;;;;;;;7.99;100.00;96943.75;4485709;32;20089;-64
2023/03/09 02:36:50;;;;;;;4.00;2.25;;;;;;;7.88;100.00;96947.53;4486105;32;20533;-64
2023/03/09 02:39:44;;;;;;;3.75;2.08;;;;;;;7.82;100.00;96942.97;4485689;31;20188;-64
2023/03/09 02:42:11;;;;;;;6.12;2.40;;;;;;;7.76;100.00;96935.81;4484554;32;20155;-64
2023/03/09 02:44:39;;;;;;;3.72;2.10;;;;;;;7.69;100.00;96930.44;4484428;32;20194;-64
2023/03/09 02:47:10;;;;;;;5.35;2.40;;;;;;;7.60;100.00;96928.81;4485975;32;20100;-64
2023/03/09 02:49:37;;;;;;;3.03;1.90;;;;;;;7.60;100.00;96934.00;4485763;31;20417;-64
2023/03/09 02:52:05;;;;;;;5.72;2.42;;;;;;;7.53;100.00;96948.69;4485728;31;20101;-64
2023/03/09 02:54:32;;;;;;;4.45;2.50;;;;;;;7.49;100.00;96958.63;4485597;31;20502;-64
2023/03/09 02:56:59;;;;;;;4.15;2.12;;;;;;;7.51;100.00;96958.44;4485865;31;20224;-64
2023/03/09 02:59:27;;;;;;;5.40;2.67;;;;;;;7.40;100.00;96950.00;4485991;31;20135;-64
2023/03/09 03:01:54;;;;;;;5.87;2.58;;;;;;;7.35;100.00;96948.84;4485585;31;20132;-64
2023/03/09 03:04:21;;;;;;;4.45;2.50;;;;;;;7.24;100.00;96935.16;4485310;32;20153;-64
2023/03/09 03:06:50;;;;;;;5.70;2.45;;;;;;;7.23;100.00;96943.13;4485870;32;20469;-64
2023/03/09 03:09:18;;;;;;;5.70;2.97;;;;;;;7.14;100.00;96950.13;4485763;31;20085;-64
2023/03/09 03:11:45;;;;;;;6.00;2.50;;;;;;;7.27;100.00;96966.09;4485468;32;20114;-64
2023/03/09 03:14:12;;;;;;;3.28;2.10;;;;;;;7.36;100.00;96964.31;4485351;31;20092;-64
2023/03/09 03:16:39;;;;;;;7.60;2.58;;;;;;;7.36;100.00;96953.06;4485473;31;20099;-64
2023/03/09 03:19:07;;;;;;;3.75;2.28;;;;;;;7.33;100.00;96956.00;4486017;31;20164;-64
2023/03/09 03:21:35;;;;;;;5.30;2.37;;;;;;;7.26;100.00;96948.81;4485759;31;20088;-64
2023/03/09 03:24:02;;;;;;;3.85;2.00;;;;;;;7.16;100.00;96947.34;4485836;32;20170;-64
2023/03/09 03:26:30;;;;;;;5.37;2.60;;;;;;;7.18;100.00;96955.84;4485741;31;20104;-64
2023/03/09 03:29:00;;;;;;;6.22;2.42;;;;;;;7.20;100.00;96952.06;4485721;31;20123;-64
2023/03/09 03:31:27;;;;;;;5.07;1.90;;;;;;;7.16;100.00;96942.97;4485668;31;20159;-64
2023/03/09 03:33:55;;;;;;;5.68;2.40;;;;;;;7.15;100.00;96935.31;4485721;31;20168;-64
2023/03/09 03:36:22;;;;;;;5.53;2.45;;;;;;;7.12;100.00;96931.25;4485757;31;20109;-64
2023/03/09 03:38:50;;;;;;;6.35;2.30;;;;;;;7.13;100.00;96958.91;4485404;31;20092;-64
2023/03/09 03:41:17;;;;;;;4.50;2.42;;;;;;;7.15;100.00;96964.78;4485676;31;20095;-64
2023/03/09 03:43:45;;;;;;;5.60;2.17;;;;;;;7.12;100.00;96957.28;4485722;31;20123;-64
2023/03/09 03:46:12;;;;;;;6.28;2.42;;;;;;;7.13;100.00;96958.09;4485527;31;20167;-64
2023/03/09 03:48:40;;;;;;;4.47;2.15;;;;;;;7.18;100.00;96951.44;4485231;32;20573;-64
2023/03/09 03:51:07;;;;;;;4.93;2.78;;;;;;;7.13;100.00;96958.09;4485538;31;20100;-64
2023/03/09 03:53:35;;;;;;;8.73;2.47;;;;;;;7.16;100.00;96958.59;4485582;32;20088;-64
2023/03/09 03:56:03;;;;;;;7.25;2.35;;;;;;;7.28;100.00;96962.53;4485326;31;20446;-64
2023/03/09 03:58:31;;;;;;;4.47;2.30;;;;;;;7.27;100.00;96954.88;4485494;31;20864;-64
2023/03/09 04:00:58;;;;;;;6.65;2.50;;;;;;;7.34;100.00;96957.63;4485701;31;20124;-64
2023/03/09 04:03:26;;;;;;;9.77;2.70;;;;;;;7.33;100.00;96958.59;4485555;31;20105;-64
2023/03/09 04:05:53;;;;;;;6.30;2.28;;;;;;;7.26;100.00;96948.81;4485115;31;20375;-64
2023/03/09 04:08:21;;;;;;;3.58;2.25;;;;;;;7.14;100.00;96941.50;4485334;31;20175;-64
2023/03/09 04:10:49;;;;;;;3.05;2.08;;;;;;;7.10;100.00;96948.78;4485082;31;20398;-64
2023/03/09 04:13:16;;;;;;;3.58;2.47;;;;;;;7.08;100.00;96955.97;4485304;32;20085;-64
2023/03/09 04:15:43;;;;;;;7.68;2.50;;;;;;;6.98;100.00;96947.47;4484917;31;20084;-64
2023/03/09 04:18:11;;;;;;;5.20;2.35;;;;;;;6.89;100.00;96938.84;4485590;31;20374;-64
2023/03/09 04:20:39;;;;;;;5.40;2.20;;;;;;;6.89;100.00;96944.06;4485370;32;20088;-64
2023/03/09 04:23:08;;;;;;;7.47;2.35;;;;;;;6.78;100.00;96941.72;4484115;32;20155;-64
2023/03/09 04:25:36;;;;;;;4.30;2.20;;;;;;;6.80;100.00;96938.00;4485360;31;20211;-64
2023/03/09 04:28:03;;;;;;;4.10;2.28;;;;;;;6.90;100.00;96938.69;4485134;32;20115;-64
2023/03/09 04:30:31;;;;;;;4.97;2.28;;;;;;;7.00;100.00;96932.53;4485265;31;20168;-64
2023/03/09 04:32:59;;;;;;;8.90;2.60;;;;;;;7.07;100.00;96925.69;4485314;31;20146;-64
2023/03/09 04:35:26;;;;;;;3.17;2.00;;;;;;;7.09;100.00;96921.16;4484564;31;20123;-64
2023/03/09 04:37:55;;;;;;;7.12;3.35;;;;;;;7.15;100.00;96922.31;4485097;31;20127;-64
2023/03/09 04:40:23;;;;;;;5.97;2.70;;;;;;;7.22;100.00;96920.66;4485254;32;20088;-64
2023/03/09 04:42:51;;;;;;;6.55;2.50;;;;;;;7.32;100.00;96916.13;4485101;31;20139;-64
2023/03/09 04:45:18;;;;;;;6.82;2.78;;;;;;;7.46;100.00;96917.25;4484735;32;20159;-64
2023/03/09 04:47:47;;;;;;;10.82;2.67;;;;;;;7.55;100.00;96910.25;4485013;31;20129;-64
2023/03/09 04:50:14;;;;;;;4.80;2.55;;;;;;;7.55;100.00;96905.84;4484882;31;20152;-64
2023/03/09 04:52:44;;;;;;;6.10;2.67;;;;;;;7.55;100.00;96905.03;4485004;31;20131;-64
2023/03/09 04:55:11;;;;;;;8.68;2.70;;;;;;;7.59;100.00;96901.94;4485056;32;20157;-64
2023/03/09 04:57:39;;;;;;;6.22;2.45;;;;;;;7.55;100.00;96910.25;4485016;31;20191;-64
2023/03/09 05:00:10;;;;;;;7.57;4.35;;;;;;;7.55;100.00;96900.63;4485050;32;20157;-64
2023/03/09 05:02:38;;;;;;;6.07;2.45;;;;;;;7.57;100.00;96901.31;4483743;32;20489;-64
2023/03/09 05:05:08;;;;;;;6.07;2.45;;;;;;;7.60;100.00;96913.16;4484756;31;20092;-64
2023/03/09 05:07:37;;;;;;;4.60;2.50;;;;;;;7.64;100.00;96904.88;4484692;31;20100;-64
2023/03/09 05:10:05;;;;;;;6.85;2.30;;;;;;;7.73;100.00;96900.44;4484638;31;20092;-64
2023/03/09 05:12:33;;;;;;;4.87;2.20;;;;;;;7.78;100.00;96892.97;4484766;31;20760;-66
2023/03/09 05:15:01;;;;;;;3.33;2.05;;;;;;;7.91;100.00;96897.66;4484596;32;20151;-66
2023/03/09 05:17:31;;;;;;;6.28;2.22;;;;;;;8.15;100.00;96898.59;4484710;32;20171;-66
2023/03/09 05:19:59;;;;;;;5.07;2.37;;;;;;;8.32;100.00;96907.97;4484497;31;20089;-66
2023/03/09 05:22:26;;;;;;;5.45;2.47;;;;;;;8.63;100.00;96917.66;4484642;31;20118;-66
2023/03/09 05:24:56;;;;;;;3.97;2.35;;;;;;;8.90;100.00;96915.56;4484566;31;20103;-66
2023/03/09 05:27:23;;;;;;;9.07;2.42;;;;;;;8.88;100.00;96928.78;4478656;32;20145;-66
2023/03/09 05:29:52;;;;;;;3.33;1.83;;;;;;;9.06;100.00;96931.13;4475816;32;20088;-66
2023/03/09 05:32:20;;;;;;;6.40;2.60;;;;;;;9.15;100.00;96921.44;4468343;32;20098;-66
2023/03/09 05:34:50;;;;;;;4.87;2.50;;;;;;;9.16;100.00;96915.25;4468101;32;20111;-66
2023/03/09 05:37:17;;;;;;;4.15;2.35;;;;;;;9.15;100.00;96918.84;4468233;32;20165;-66
2023/03/09 05:39:48;;;;;;;10.85;2.25;;;;;;;9.13;100.00;96919.97;4466883;32;20093;-66
2023/03/09 05:42:16;;;;;;;5.22;2.05;;;;;;;9.21;100.00;96919.94;4466983;32;20671;-66
2023/03/09 05:44:43;;;;;;;3.85;2.40;;;;;;;9.21;100.00;96922.56;4468319;32;20482;-66
2023/03/09 05:47:11;;;;;;;5.50;2.78;;;;;;;9.18;100.00;96926.31;4468411;32;20169;-66
2023/03/09 05:49:39;;;;;;;5.57;2.33;;;;;;;9.29;100.00;96914.66;4474554;32;20677;-65
2023/03/09 05:52:06;;;;;;;3.42;2.30;;;;;;;9.46;100.00;96923.16;4477358;31;20100;-66
2023/03/09 05:54:34;;;;;;;5.32;2.53;;;;;;;9.44;100.00;96940.03;4474489;32;20170;-66
2023/03/09 05:57:04;;;;;;;5.03;2.87;;;;;;;9.39;100.00;96940.56;4471256;32;20097;-64
2023/03/09 05:59:32;;;;;;;4.65;2.35;;;;;;;9.37;100.00;96932.06;4485124;31;20179;-64
2023/03/09 06:02:05;;;;;;;5.68;2.55;;;;;;;9.49;100.00;96924.63;4484361;31;20164;-66
2023/03/09 06:04:33;;;;;;;9.00;2.70;;;;;;;9.49;100.00;96914.16;4480082;32;20104;-66
2023/03/09 06:07:01;;;;;;;4.55;1.92;;;;;;;9.70;100.00;96908.28;4482396;31;20148;-66
2023/03/09 06:09:29;;;;;;;5.47;2.35;;;;;;;9.68;100.00;96912.88;4485014;31;20089;-66
2023/03/09 06:11:56;;;;;;;7.53;2.60;;;;;;;9.82;100.00;96934.81;4484144;32;20096;-67
2023/03/09 06:14:24;;;;;;;2.53;1.83;;;;;;;10.05;100.00;96932.13;4482231;32;20095;-66
2023/03/09 06:16:52;;;;;;;5.87;2.05;;;;;;;10.12;100.00;96931.22;4481385;32;20161;-66
2023/03/09 06:19:19;;;;;;;5.25;2.08;;;;;;;10.28;100.00;96940.72;4480159;31;20499;-65
2023/03/09 06:21:46;;;;;;;4.07;2.33;;;;;;;10.49;100.00;96936.59;4479615;32;20430;-67
2023/03/09 06:24:14;;;;;;;6.70;2.12;;;;;;;10.55;100.00;96935.06;4478399;32;20108;-67
2023/03/09 06:26:41;;;;;;;7.53;2.12;;;;;;;10.68;100.00;96934.41;4477241;32;20139;-66
2023/03/09 06:29:09;;;;;;;6.62;2.20;;;;;;;10.72;100.00;96938.28;4478852;32;21896;-67
2023/03/09 06:31:37;;;;;;;6.12;2.30;;;;;;;10.92;100.00;96947.19;4479085;31;20833;-67
2023/03/09 06:34:05;;;;;;;7.57;2.92;;;;;;;10.95;100.00;96936.34;4479525;32;20477;-67
2023/03/09 06:36:34;;;;;;;7.45;2.72;;;;;;;11.11;100.00;96942.34;4482110;31;20424;-67
2023/03/09 06:39:01;;;;;;;7.87;1.83;;;;;;;11.10;100.00;96954.66;4483900;31;20168;-67
2023/03/09 06:41:31;;;;;;;7.18;2.30;;;;;;;11.06;100.00;96952.59;4484479;31;20115;-67
2023/03/09 06:44:00;;;;;;;3.80;2.00;;;;;;;11.11;100.00;96966.75;4483747;32;20088;-67
2023/03/09 06:46:29;;;;;;;5.07;2.90;;;;;;;11.23;100.00;96969.69;4483944;32;20100;-68
2023/03/09 06:48:57;;;;;;;4.70;1.90;;;;;;;11.26;100.00;96958.81;4483277;31;20112;-67
2023/03/09 06:51:24;;;;;;;4.45;2.17;;;;;;;11.38;100.00;96959.16;4482729;31;20099;-67
2023/03/09 06:53:52;;;;;;;4.05;2.33;;;;;;;11.51;100.00;96958.47;4482045;31;20169;-67
2023/03/09 06:56:22;;;;;;;3.75;2.00;;;;;;;11.54;100.00;96963.34;4484064;31;20157;-67
2023/03/09 06:58:52;;;;;;;8.18;2.92;;;;;;;11.37;100.00;96965.41;4481150;31;20177;-67
2023/03/09 07:01:21;;;;;;;3.95;2.22;;;;;;;11.34;100.00;96968.41;4477655;31;20092;-67
2023/03/09 07:03:49;;;;;;;3.67;2.10;;;;;;;11.30;100.00;96975.00;4481286;31;20149;-67
2023/03/09 07:06:16;;;;;;;4.75;2.03;;;;;;;11.22;100.00;96985.59;4484096;31;20104;-67
2023/03/09 07:08:44;;;;;;;3.50;1.67;;;;;;;11.27;100.00;96981.44;4484229;31;20103;-69
2023/03/09 07:11:11;;;;;;;4.20;2.10;;;;;;;11.18;100.00;96985.16;4483397;32;20122;-69
2023/03/09 07:13:38;;;;;;;4.85;2.10;;;;;;;11.13;100.00;96985.72;4480767;31;20087;-69
2023/03/09 07:16:06;;;;;;;5.20;1.87;;;;;;;11.09;100.00;96978.41;4482842;32;20601;-69
2023/03/09 07:18:34;;;;;;;8.20;2.40;;;;;;;11.03;100.00;96979.97;4483762;31;20092;-69
2023/03/09 07:21:03;;;;;;;3.97;2.15;;;;;;;10.93;100.00;96982.03;4483476;31;20122;-70
2023/03/09 07:23:31;;;;;;;3.97;2.12;;;;;;;10.86;100.00;96983.81;4477726;31;20532;-69
2023/03/09 07:26:03;;;;;;;5.35;2.10;;;;;;;10.92;100.00;96994.34;4481249;31;20113;-68
2023/03/09 07:28:32;;;;;;;7.18;1.90;;;;;;;11.00;100.00;96998.66;4483090;31;20092;-69
2023/03/09 07:31:09;;;;;;;4.57;1.87;;;;;;;11.07;100.00;97007.44;4481700;31;20422;-67
2023/03/09 07:33:37;;;;;;;5.47;1.80;;;;;;;11.03;100.00;97011.41;4474436;31;20120;-67
2023/03/09 07:36:07;;;;;;;6.03;1.80;;;;;;;11.06;100.00;97015.47;4483422;32;20497;-68
2023/03/09 07:38:35;;;;;;;5.70;1.83;;;;;;;10.99;100.00;97023.22;4481206;32;20111;-67
2023/03/09 07:41:02;;;;;;;5.43;2.03;;;;;;;11.05;100.00;97021.69;4481517;32;20144;-68
2023/03/09 07:43:29;;;;;;;6.62;1.48;;;;;;;11.03;100.00;97008.78;4483141;31;20171;-67
2023/03/09 07:45:58;;;;;;;5.60;1.48;;;;;;;11.04;100.00;97005.16;4481485;31;20092;-66
2023/03/09 07:48:26;;;;;;;4.55;2.30;;;;;;;11.05;100.00;96998.91;4483138;31;20528;-67
2023/03/09 07:50:58;;;;;;;3.87;2.20;;;;;;;11.06;100.00;97005.78;4483566;31;20122;-67
2023/03/09 07:53:25;;;;;;;4.60;1.42;;;;;;;11.06;100.00;97005.00;4483061;32;20095;-68
2023/03/09 07:55:57;;;;;;;7.10;1.65;;;;;;;11.13;100.00;96998.03;4482628;31;20176;-69
2023/03/09 07:58:25;;;;;;;3.25;1.85;;;;;;;11.17;100.00;96997.47;4476486;32;20152;-69
2023/03/09 08:00:52;;;;;;;2.10;1.50;;;;;;;11.12;100.00;96999.81;4483206;32;20088;-70
2023/03/09 08:03:20;;;;;;;5.43;1.77;;;;;;;11.11;100.00;97003.44;4483856;31;20120;-68
2023/03/09 08:05:47;;;;;;;6.05;1.52;;;;;;;11.13;100.00;97004.06;4482991;31;20173;-69
2023/03/09 08:08:14;;;;;;;5.45;2.03;;;;;;;11.27;100.00;97009.47;4484151;32;20115;-67
2023/03/09 08:10:50;;;;;;;7.28;1.75;;;;;;;11.38;100.00;97011.59;4481713;32;20100;-69
2023/03/09 08:13:17;;;;;;;5.90;1.77;;;;;;;11.41;100.00;97013.84;4483324;31;20108;-69
2023/03/09 08:15:45;;;;;;;3.85;1.73;;;;;;;11.36;100.00;97018.84;4481802;31;20232;-69
2023/03/09 08:18:12;;;;;;;2.72;1.33;;;;;;;11.39;100.00;97022.91;4481444;31;20097;-70
2023/03/09 08:20:39;;;;;;;2.85;1.42;;;;;;;11.47;100.00;97030.66;4482071;31;20088;-70
2023/03/09 08:23:07;;;;;;;3.25;1.67;;;;;;;11.52;100.00;97020.41;4482985;31;20573;-70
2023/03/09 08:25:34;;;;;;;3.42;1.40;;;;;;;11.62;100.00;97034.03;4481442;31;20096;-70
2023/03/09 08:28:03;;;;;;;3.28;1.65;;;;;;;11.76;100.00;97039.41;4482439;31;20116;-70
2023/03/09 08:30:30;;;;;;;5.70;1.65;;;;;;;11.85;100.00;97040.91;4483659;32;20096;-70
2023/03/09 08:32:58;;;;;;;2.65;1.52;;;;;;;12.01;100.00;97039.88;4481889;31;20100;-69
2023/03/09 08:35:30;;;;;;;5.93;2.22;;;;;;;12.22;100.00;97046.91;4474730;31;20156;-69
2023/03/09 08:37:57;;;;;;;8.63;2.20;;;;;;;12.42;100.00;97036.56;4483351;31;20104;-69
2023/03/09 08:40:25;;;;;;;4.15;1.87;;;;;;;12.53;100.00;97045.72;4483654;31;20111;-68
2023/03/09 08:42:52;;;;;;;7.22;2.15;;;;;;;12.59;100.00;97040.50;4483882;32;20129;-68
2023/03/09 08:45:19;;;;;;;2.30;1.80;;;;;;;12.52;100.00;97029.16;4481686;31;20173;-68
2023/03/09 08:47:47;;;;;;;2.42;1.50;;;;;;;12.49;100.00;97019.03;4482322;31;20105;-67
2023/03/09 08:50:14;;;;;;;2.33;1.42;;;;;;;12.47;100.00;97012.34;4482786;31;20085;-69
2023/03/09 08:52:41;;;;;;;4.90;1.50;;;;;;;12.38;100.00;97003.78;4482291;31;20126;-68
2023/03/09 08:55:09;;;;;;;2.78;1.40;;;;;;;12.49;100.00;97008.53;4481177;31;20744;-68
2023/03/09 08:57:38;;;;;;;2.90;1.50;;;;;;;12.46;100.00;97005.47;4481860;32;20097;-68
2023/03/09 09:00:08;;;;;;;4.82;1.73;;;;;;;12.71;100.00;97008.44;4483533;31;20523;-67
2023/03/09 09:02:35;;;;;;;3.87;2.03;;;;;;;12.91;100.00;97008.53;4480456;32;20104;-68
2023/03/09 09:05:03;;;;;;;4.62;1.35;;;;;;;12.94;100.00;97010.75;4479257;31;20096;-69
2023/03/09 09:07:31;;;;;;;4.28;1.80;;;;;;;13.18;100.00;97014.69;4480572;31;20126;-67
2023/03/09 09:09:59;;;;;;;1.83;1.27;;;;;;;13.38;100.00;97014.78;4481760;31;20126;-68
2023/03/09 09:12:27;;;;;;;2.22;1.25;;;;;;;13.49;100.00;97014.22;4482286;32;20453;-67
2023/03/09 09:14:55;;;;;;;4.32;1.67;;;;;;;13.65;99.83;97020.13;4479597;31;20217;-68
2023/03/09 09:17:22;;;;;;;4.57;1.83;;;;;;;13.72;98.49;97014.88;4480432;31;20100;-68
2023/03/09 09:19:51;;;;;;;6.03;1.50;;;;;;;13.72;97.16;97014.88;4482414;31;20590;-68
2023/03/09 09:22:18;;;;;;;3.05;1.30;;;;;;;13.57;97.81;97026.38;4482855;31;20099;-66
2023/03/09 09:24:46;;;;;;;2.40;1.52;;;;;;;13.68;97.78;97021.56;4482958;31;20101;-67
2023/03/09 09:27:13;;;;;;;4.15;1.85;;;;;;;13.52;98.56;97025.34;4479387;31;20155;-68
2023/03/09 09:29:41;;;;;;;3.17;1.52;;;;;;;13.54;99.54;97029.41;4482836;32;20110;-68
2023/03/09 09:32:09;;;;;;;8.25;2.58;;;;;;;13.70;98.91;97028.25;4484225;31;20097;-68
2023/03/09 09:34:36;;;;;;;3.97;1.33;;;;;;;13.81;99.63;97029.47;4481149;32;20092;-68
2023/03/09 09:37:07;;;;;;;4.40;1.20;;;;;;;13.93;98.13;97037.56;4483515;31;20097;-66
2023/03/09 09:39:34;;;;;;;5.72;1.27;;;;;;;14.09;98.29;97037.16;4483638;31;20113;-65
2023/03/09 09:42:05;;;;;;;3.53;1.25;;;;;;;14.07;95.87;97041.03;4484960;31;20175;-65
2023/03/09 09:44:42;;;;;;;2.08;1.42;;;;;;;14.31;94.17;97052.78;4481013;31;21044;-67
2023/03/09 09:47:35;;;;;;;4.72;1.87;;;;;;;14.46;93.50;97053.38;4481538;32;20426;-67
2023/03/09 09:50:03;;;;;;;4.18;1.60;;;;;;;14.93;96.46;97032.25;4477868;32;20159;-67
2023/03/09 09:52:47;;;;;;;5.47;1.90;;;;;;;15.49;89.30;97024.69;4483969;31;20119;-67
2023/03/09 09:55:18;;;;;;;2.60;1.40;;;;;;;16.04;88.93;97027.59;4480093;32;20100;-65
2023/03/09 09:58:00;;;;;;;4.15;1.50;;;;;;;16.43;86.80;97009.00;4481975;31;20088;-66
2023/03/09 10:00:41;;;;;;;4.15;1.20;;;;;;;16.43;82.10;97033.59;4479449;32;20139;-66
2023/03/09 10:03:33;;;;;;;4.45;1.67;;;;;;;16.50;80.60;97044.91;4481839;32;20100;-66
2023/03/09 10:06:20;;;;;;;2.37;1.10;;;;;;;16.49;80.45;97061.78;4479196;31;20121;-66
2023/03/09 10:09:00;;;;;;;2.20;1.20;;;;;;;16.43;79.42;97057.38;4480714;31;20163;-65
2023/03/09 10:11:35;;;;;;;2.37;1.27;;;;;;;16.56;80.92;97055.62;4484117;31;20089;-66
2023/03/09 10:14:21;;;;;;;1.90;1.10;;;;;;;17.02;77.88;97043.81;4482525;32;20799;-66
2023/03/09 10:16:55;;;;;;;4.70;1.12;;;;;;;16.82;76.90;97036.87;4483841;31;20144;-66
2023/03/09 10:19:38;;;;;;;2.60;1.17;;;;;;;17.16;77.11;97034.69;4482776;31;20106;-65
2023/03/09 10:22:16;;;;;;;3.08;1.00;;;;;;;17.48;75.03;97039.78;4481213;31;20088;-66
2023/03/09 10:24:45;;;;;;;5.87;1.17;;;;;;;17.59;74.60;97046.16;4482773;32;20492;-66
2023/03/09 10:27:52;;;;;;;2.47;1.10;;;;;;;17.80;72.81;97046.69;4472722;32;20123;-66
2023/03/09 10:30:25;;;;;;;2.45;1.33;;;;;;;17.72;69.81;97048.63;4407353;32;20113;-66
2023/03/09 10:32:57;;;;;;;6.80;1.30;;;;;;;17.47;70.54;97051.41;4416298;32;20114;-66
2023/03/09 10:35:41;;;;;;;2.50;1.00;;;;;;;17.45;68.19;97048.16;4422419;32;20564;-66
2023/03/09 10:38:16;;;;;;;4.35;2.22;;;;;;;17.18;68.80;97067.03;4416380;32;20105;-66
2023/03/09 10:40:49;;;;;;;4.40;1.00;;;;;;;16.92;70.29;97062.03;4419440;32;20165;-67
2023/03/09 10:43:22;;;;;;;4.23;0.80;;;;;;;17.15;70.20;97070.12;4414248;32;20139;-66
2023/03/09 10:45:50;;;;;;;2.28;1.10;;;;;;;17.11;68.51;97076.88;4407709;32;20149;-66
2023/03/09 10:48:20;;;;;;;12.10;1.25;;;;;;;17.18;68.83;97067.03;4415793;32;20101;-66
2023/03/09 10:51:04;;;;;;;2.87;0.93;;;;;;;17.22;68.30;97063.94;4415422;32;20184;-66
2023/03/09 10:53:43;;;;;;;2.55;0.90;;;;;;;17.03;68.51;97071.88;4405182;32;20522;-66
2023/03/09 10:56:25;;;;;;;2.75;0.80;;;;;;;17.02;69.36;97075.56;4412659;32;20148;-66
2023/03/09 10:59:07;;;;;;;2.83;1.02;;;;;;;17.18;68.25;97064.38;4416616;32;20170;-66
2023/03/09 11:01:36;;;;;;;3.12;1.00;;;;;;;16.97;70.71;97075.38;4419464;32;20127;-64
2023/03/09 11:04:26;;;;;;;5.28;1.10;;;;;;;17.32;69.12;97064.22;4443941;32;20080;-64
2023/03/09 11:07:20;;;;;;;3.85;0.90;;;;;;;16.87;70.42;97061.88;4481001;31;20104;-66
2023/03/09 11:09:49;;;;;;;2.87;1.15;;;;;;;16.72;70.63;97068.28;4476468;31;20111;-66
2023/03/09 11:12:21;;;;;;;2.42;1.10;;;;;;;16.41;71.56;97070.00;4480977;31;20134;-66
2023/03/09 11:14:49;;;;;;;1.60;0.88;;;;;;;16.34;72.83;97063.16;4478232;31;20104;-66
2023/03/09 11:17:31;;;;;;;1.50;0.88;;;;;;;16.37;72.04;97060.88;4482483;32;20164;-65
2023/03/09 11:20:26;;;;;;;5.35;1.42;;;;;;;16.52;71.58;97075.59;4483209;31;20092;-66
2023/03/09 11:23:01;;;;;;;;;;;;;;;16.66;65.12;97074.47;4477207;31;20107;-65
2023/03/09 11:25:57;;;;;;;6.70;1.00;;;;;;;16.73;61.00;97072.56;4483814;32;19975;-66
2023/03/09 11:28:29;;;;;;;2.97;1.50;;;;;;;16.66;59.96;97087.69;4478466;32;20176;-65
2023/03/09 11:30:57;;;;;;;1.45;1.02;;;;;;;16.66;59.71;97083.19;4482617;32;20096;-67
2023/03/09 11:33:28;;;;;;;4.20;1.30;;;;;;;16.60;60.15;97085.91;4481267;31;20557;-66
2023/03/09 11:35:56;;;;;;;5.18;1.20;;;;;;;16.72;59.23;97092.09;4482484;32;20091;-67
2023/03/09 11:38:25;;;;;;;11.38;5.22;;;;;;;16.80;58.78;97091.81;4479193;31;20451;-66
2023/03/09 11:41:28;;;;;;;2.33;1.20;;;;;;;16.67;58.78;97091.94;4484003;31;20810;-66
2023/03/09 11:44:00;;;;;;;2.08;1.15;;;;;;;16.61;58.92;97108.69;4470129;32;20105;-66
2023/03/09 11:46:28;;;;;;;2.60;1.70;;;;;;;16.40;59.38;97107.22;4481549;32;20088;-66